Atlanta, Georgia
Traffic Map
Current Weather Conditions
Atlanta, Georgia
Broken Clouds
Broken Clouds
85°
Feels Like: 88°
Wind Chill: 85° Ceiling: 25000
Heat Index: 88° Visibility: 10mi
Dew Point: 67° Wind: 3mph
Humidity: 55% Direction: ° ()
Pressure: 29.89in Gusts: 0mph
Raw Report DataKATL 262052Z VRB03KT 10SM SCT041TCU BKN250 29/19 A2989 RMK AO2 SLP111 TCU ALQDS T02940194 56024
Traffic Incident Summary
Active as of:
Severity:
Category:
InformationThere was an issue retrieving the traffic information for this location. Please try a different location or try again shortly.
Advertisements